createdAt,value
2023-02-14T00:02:09.205Z,31.90
2023-02-14T00:05:11.675Z,33.88
2023-02-14T00:08:18.558Z,32.72
2023-02-14T00:11:21.265Z,30.42
2023-02-14T00:14:42.428Z,31.40
2023-02-14T00:17:44.735Z,25.83
2023-02-14T00:20:47.130Z,27.65
2023-02-14T00:23:49.580Z,27.45
2023-02-14T00:26:52.882Z,23.62
2023-02-14T00:29:59.277Z,24.20
2023-02-14T00:33:01.620Z,27.57
2023-02-14T00:36:07.354Z,27.58
2023-02-14T00:39:12.654Z,29.67
2023-02-14T00:42:15.129Z,31.02
2023-02-14T00:45:19.351Z,34.13
2023-02-14T00:48:21.700Z,31.87
2023-02-14T00:51:24.735Z,35.15
2023-02-14T00:54:27.245Z,31.80
2023-02-14T00:57:29.639Z,32.75
2023-02-14T01:00:32.115Z,30.37
2023-02-14T01:03:34.947Z,35.50
2023-02-14T01:06:37.817Z,34.33
2023-02-14T01:09:41.041Z,31.20
2023-02-14T01:12:43.344Z,31.37
2023-02-14T01:15:48.352Z,33.63
2023-02-14T01:18:51.917Z,28.53
2023-02-14T01:21:54.309Z,28.75
2023-02-14T01:24:56.574Z,30.05
2023-02-14T01:27:59.173Z,27.67
2023-02-14T01:31:13.512Z,30.37
2023-02-14T01:34:15.966Z,29.80
2023-02-14T01:37:18.390Z,23.77
2023-02-14T01:40:20.812Z,30.15
2023-02-14T01:43:23.417Z,26.70
2023-02-14T01:46:28.929Z,21.73
2023-02-14T01:49:39.917Z,26.70
2023-02-14T01:52:57.955Z,24.65
2023-02-14T01:56:07.455Z,24.65
2023-02-14T01:59:15.926Z,27.90
2023-02-14T02:02:23.898Z,20.90
2023-02-14T02:05:27.667Z,25.83
2023-02-14T02:08:30.083Z,26.12
2023-02-14T02:11:32.629Z,27.95
2023-02-14T02:14:35.434Z,25.90
2023-02-14T02:18:35.603Z,22.80
2023-02-14T02:21:58.069Z,28.23
2023-02-14T02:25:22.122Z,28.20
2023-02-14T02:28:36.518Z,23.60
2023-02-14T02:32:23.426Z,22.40
2023-02-14T02:35:36.337Z,24.53
2023-02-14T02:39:06.006Z,25.47
2023-02-14T02:42:42.262Z,21.20
2023-02-14T02:46:20.337Z,24.60
2023-02-14T02:49:53.378Z,22.77
2023-02-14T02:53:26.096Z,28.13
2023-02-14T02:56:46.944Z,27.43
2023-02-14T02:59:52.013Z,22.67
2023-02-14T03:03:16.495Z,27.70
2023-02-14T03:06:18.865Z,25.05
2023-02-14T03:09:21.019Z,29.67
2023-02-14T03:12:35.366Z,28.03
2023-02-14T03:16:07.986Z,26.20
2023-02-14T03:19:44.086Z,28.92
2023-02-14T03:23:04.631Z,27.48
2023-02-14T03:26:27.601Z,31.83
2023-02-14T03:29:56.288Z,22.30
2023-02-14T03:33:06.660Z,28.35
2023-02-14T03:36:41.430Z,30.73
2023-02-14T03:39:53.460Z,30.62
2023-02-14T03:43:12.090Z,35.47
2023-02-14T03:46:24.727Z,33.47
2023-02-14T03:49:31.371Z,27.15
2023-02-14T03:52:36.277Z,24.40
2023-02-14T03:56:29.597Z,35.67
2023-02-14T03:59:31.995Z,36.33
2023-02-14T04:02:39.385Z,43.72
2023-02-14T04:05:43.983Z,40.05
2023-02-14T04:08:46.464Z,35.53
2023-02-14T04:11:50.711Z,35.05
2023-02-14T04:14:53.104Z,32.53
2023-02-14T04:18:14.247Z,36.55
2023-02-14T04:21:17.223Z,35.38
2023-02-14T04:24:20.763Z,37.83
2023-02-14T04:27:22.986Z,36.50
2023-02-14T04:30:25.725Z,39.13
2023-02-14T04:33:28.192Z,25.27
2023-02-14T04:36:30.432Z,40.80
2023-02-14T04:39:33.212Z,36.75
2023-02-14T04:42:35.665Z,34.13
2023-02-14T04:45:38.039Z,31.10
2023-02-14T04:48:40.471Z,32.50
2023-02-14T04:51:43.347Z,33.80
2023-02-14T04:54:45.764Z,29.42
2023-02-14T04:57:48.160Z,32.55
2023-02-14T05:00:50.492Z,32.37
2023-02-14T05:03:52.884Z,28.90
2023-02-14T05:06:55.297Z,31.37
2023-02-14T05:09:57.713Z,30.17
2023-02-14T05:13:01.670Z,26.08
2023-02-14T05:16:04.198Z,32.30
2023-02-14T05:19:06.858Z,33.55
2023-02-14T05:22:09.327Z,42.03
2023-02-14T05:25:11.675Z,27.62
2023-02-14T05:28:14.047Z,34.72
2023-02-14T05:31:16.512Z,37.10
2023-02-14T05:34:18.996Z,30.98
2023-02-14T05:37:21.382Z,28.62
2023-02-14T05:43:26.495Z,34.42
2023-02-14T05:46:28.879Z,31.43
2023-02-14T05:49:31.315Z,28.62
2023-02-14T05:52:33.780Z,30.88
2023-02-14T05:55:36.164Z,28.30
2023-02-14T05:58:38.432Z,35.75
2023-02-14T06:01:40.717Z,31.27
2023-02-14T06:04:43.035Z,33.03
2023-02-14T06:07:50.783Z,30.25
2023-02-14T06:10:53.130Z,26.12
2023-02-14T06:13:55.499Z,29.50
2023-02-14T06:16:57.790Z,27.87
2023-02-14T06:20:00.128Z,26.30
2023-02-14T06:23:02.910Z,29.80
2023-02-14T06:26:05.509Z,29.08
2023-02-14T06:29:07.932Z,28.58
2023-02-14T06:32:10.324Z,23.50
2023-02-14T06:35:13.988Z,23.75
2023-02-14T06:38:17.136Z,24.73
2023-02-14T06:41:19.443Z,25.80
2023-02-14T06:44:21.801Z,20.10
2023-02-14T06:47:24.283Z,30.97
2023-02-14T06:50:26.647Z,26.83
2023-02-14T06:53:28.948Z,24.17
2023-02-14T06:56:31.326Z,23.98
2023-02-14T06:59:33.759Z,30.20
2023-02-14T07:02:36.260Z,29.60
2023-02-14T07:05:38.845Z,25.35
2023-02-14T07:08:42.490Z,21.12
2023-02-14T07:11:45.784Z,23.48
2023-02-14T07:14:48.109Z,28.27
2023-02-14T07:17:50.463Z,25.63
2023-02-14T07:20:52.770Z,27.47
2023-02-14T07:23:55.145Z,28.00
2023-02-14T07:26:57.408Z,37.40
2023-02-14T07:29:59.824Z,28.05
2023-02-14T07:33:02.250Z,43.73
2023-02-14T07:36:06.344Z,34.07
2023-02-14T07:39:08.635Z,28.98
2023-02-14T07:42:11.865Z,34.78
2023-02-14T07:45:21.546Z,37.05
2023-02-14T07:48:25.433Z,32.27
2023-02-14T07:51:27.758Z,29.77
2023-02-14T07:54:30.060Z,26.37
2023-02-14T07:57:32.408Z,31.45
2023-02-14T08:00:34.839Z,38.05
2023-02-14T08:03:37.265Z,30.30
2023-02-14T08:06:40.509Z,33.87
2023-02-14T08:09:43.045Z,29.90
2023-02-14T08:13:00.748Z,27.48
2023-02-14T08:16:06.613Z,30.27
2023-02-14T08:19:09.385Z,27.67
2023-02-14T08:22:12.080Z,30.03
2023-02-14T08:25:14.421Z,29.48
2023-02-14T08:28:17.167Z,35.15
2023-02-14T08:31:36.684Z,35.55
2023-02-14T08:34:39.151Z,22.47
2023-02-14T08:37:41.549Z,27.47
2023-02-14T08:40:44.009Z,34.47
2023-02-14T08:43:46.342Z,31.33
2023-02-14T08:46:48.811Z,27.10
2023-02-14T08:49:51.176Z,31.43
2023-02-14T08:52:53.506Z,31.37
2023-02-14T08:55:55.801Z,34.38
2023-02-14T08:58:58.496Z,31.17
2023-02-14T09:02:00.863Z,27.10
2023-02-14T09:05:03.260Z,34.47
2023-02-14T09:08:06.044Z,35.83
2023-02-14T09:11:18.858Z,28.33
2023-02-14T09:14:21.350Z,29.90
2023-02-14T09:17:23.770Z,31.67
2023-02-14T09:20:26.485Z,33.27
2023-02-14T09:23:29.098Z,32.33
2023-02-14T09:26:31.468Z,31.48
2023-02-14T09:29:34.527Z,28.92
2023-02-14T09:32:36.834Z,34.63
2023-02-14T09:35:39.303Z,28.10
2023-02-14T09:38:41.612Z,31.30
2023-02-14T09:42:08.646Z,28.75
2023-02-14T09:45:17.390Z,30.20
2023-02-14T09:48:34.298Z,30.75
2023-02-14T09:51:46.682Z,34.43
2023-02-14T09:54:54.995Z,31.00
2023-02-14T09:58:10.950Z,28.85
2023-02-14T10:01:22.393Z,32.70
2023-02-14T10:04:50.362Z,29.40
2023-02-14T10:08:15.630Z,35.77
2023-02-14T10:11:22.781Z,33.40
2023-02-14T10:14:29.994Z,29.20
2023-02-14T10:17:47.317Z,32.25
2023-02-14T10:21:00.620Z,33.17
2023-02-14T10:24:21.276Z,32.90
2023-02-14T10:27:44.900Z,31.80
2023-02-14T10:31:01.748Z,27.87
2023-02-14T10:34:19.931Z,28.52
2023-02-14T10:37:55.518Z,28.48
2023-02-14T10:41:14.337Z,20.50
2023-02-14T10:44:59.876Z,19.03
2023-02-14T10:48:30.213Z,18.83
2023-02-14T10:51:42.918Z,21.67
2023-02-14T10:54:56.855Z,27.87
2023-02-14T10:58:01.792Z,18.67
2023-02-14T11:01:12.607Z,14.50
2023-02-14T11:04:17.354Z,13.55
2023-02-14T11:07:21.895Z,19.42
2023-02-14T11:10:28.272Z,15.70
2023-02-14T11:13:39.731Z,19.50
2023-02-14T11:16:42.331Z,21.27
2023-02-14T11:19:57.580Z,18.48
2023-02-14T11:22:59.845Z,22.30
2023-02-14T11:26:05.539Z,18.27
2023-02-14T11:29:16.668Z,16.10
2023-02-14T11:32:25.115Z,18.80
2023-02-14T11:35:34.725Z,21.58
2023-02-14T11:38:40.150Z,24.98
2023-02-14T11:41:54.455Z,18.42
2023-02-14T11:44:58.732Z,21.67
2023-02-14T11:48:19.982Z,20.07
2023-02-14T11:51:34.211Z,17.60
2023-02-14T11:54:39.476Z,22.02
2023-02-14T11:57:41.952Z,20.23
2023-02-14T12:00:53.316Z,20.63
2023-02-14T12:03:59.429Z,22.43
2023-02-14T12:07:18.215Z,11.65
2023-02-14T12:10:29.733Z,22.17
2023-02-14T12:13:32.613Z,15.02
2023-02-14T12:16:56.681Z,16.27
2023-02-14T12:20:19.876Z,12.63
2023-02-14T12:24:06.097Z,16.55
2023-02-14T12:27:20.443Z,16.87
2023-02-14T12:30:25.770Z,15.63
2023-02-14T12:33:28.724Z,18.33
2023-02-14T12:36:42.946Z,12.67
2023-02-14T12:40:09.766Z,13.52
2023-02-14T12:43:31.522Z,17.00
2023-02-14T12:46:36.346Z,8.05
2023-02-14T12:49:50.929Z,18.33
2023-02-14T12:53:08.071Z,11.87
2023-02-14T12:56:34.619Z,13.48
2023-02-14T12:59:50.601Z,18.27
2023-02-14T13:03:27.757Z,20.83
2023-02-14T13:06:48.386Z,20.00
2023-02-14T13:10:00.231Z,15.60
2023-02-14T13:13:14.669Z,17.92
2023-02-14T13:16:58.296Z,18.17
2023-02-14T13:20:05.592Z,17.90
2023-02-14T13:23:37.660Z,19.23
2023-02-14T13:26:43.465Z,9.00
2023-02-14T13:29:51.203Z,19.10
2023-02-14T13:32:57.075Z,16.95
2023-02-14T13:36:03.918Z,16.73
2023-02-14T13:39:08.206Z,15.77
2023-02-14T13:42:11.602Z,13.43
2023-02-14T13:45:38.513Z,17.40
2023-02-14T13:48:42.651Z,15.05
2023-02-14T13:51:54.261Z,14.07
2023-02-14T13:55:03.498Z,11.50
2023-02-14T13:58:16.461Z,15.83
2023-02-14T14:01:40.826Z,16.62
2023-02-14T14:04:43.202Z,10.10
2023-02-14T14:07:45.502Z,18.62
2023-02-14T14:11:03.260Z,17.80
2023-02-14T14:14:21.290Z,11.83
2023-02-14T14:17:26.435Z,15.75
2023-02-14T14:20:29.584Z,17.50
2023-02-14T14:23:37.628Z,8.18
2023-02-14T14:26:49.677Z,15.23
2023-02-14T14:29:54.855Z,11.13
2023-02-14T14:33:16.335Z,16.80
2023-02-14T14:36:23.487Z,10.70
2023-02-14T14:39:30.995Z,17.12
2023-02-14T14:42:39.441Z,18.53
2023-02-14T14:45:45.333Z,17.93
2023-02-14T14:48:50.888Z,8.57
2023-02-14T14:51:53.339Z,10.63
2023-02-14T14:54:56.949Z,17.73
2023-02-14T14:58:04.304Z,14.20
2023-02-14T15:01:13.329Z,12.70
2023-02-14T15:04:25.247Z,14.30
2023-02-14T15:07:36.733Z,13.62
2023-02-14T15:10:39.988Z,11.32
2023-02-14T15:13:51.104Z,12.93
2023-02-14T15:17:05.697Z,18.17
2023-02-14T15:20:14.825Z,16.52
2023-02-14T15:23:24.291Z,22.27
2023-02-14T15:26:36.005Z,13.18
2023-02-14T15:29:38.401Z,16.00
2023-02-14T15:32:40.863Z,14.33
2023-02-14T15:35:44.117Z,17.15
2023-02-14T15:38:52.243Z,14.48
2023-02-14T15:41:58.213Z,23.48
2023-02-14T15:45:28.637Z,26.10
2023-02-14T15:48:34.358Z,20.43
2023-02-14T15:51:38.495Z,16.85
2023-02-14T15:54:46.744Z,20.20
2023-02-14T15:57:56.840Z,17.67
2023-02-14T16:01:00.710Z,22.53
2023-02-14T16:04:05.583Z,26.07
2023-02-14T16:07:29.615Z,24.77
2023-02-14T16:10:37.490Z,20.23
2023-02-14T16:13:46.356Z,21.35
2023-02-14T16:17:02.619Z,21.77
2023-02-14T16:20:46.560Z,21.10
2023-02-14T16:24:08.251Z,25.83
2023-02-14T16:27:13.568Z,28.00
2023-02-14T16:30:19.684Z,24.27
2023-02-14T16:33:26.845Z,26.87
2023-02-14T16:36:31.589Z,25.57
2023-02-14T16:39:35.820Z,25.23
2023-02-14T16:42:43.024Z,20.90
2023-02-14T16:45:46.608Z,26.58
2023-02-14T16:48:53.711Z,21.47
2023-02-14T16:51:57.858Z,26.50
2023-02-14T16:55:01.136Z,30.52
2023-02-14T16:58:05.194Z,31.77
2023-02-14T17:01:08.618Z,31.67
2023-02-14T17:04:11.271Z,34.90
2023-02-14T17:07:16.301Z,32.17
2023-02-14T17:10:21.022Z,36.58
2023-02-14T17:13:27.458Z,42.92
2023-02-14T17:16:34.760Z,28.33
2023-02-14T17:19:38.136Z,36.37
2023-02-14T17:22:45.716Z,34.60
2023-02-14T17:25:49.583Z,43.80
2023-02-14T17:28:53.121Z,44.80
2023-02-14T17:31:58.224Z,48.47
2023-02-14T17:35:04.044Z,45.77
2023-02-14T17:38:09.600Z,43.60
2023-02-14T17:41:15.738Z,51.25
2023-02-14T17:44:19.564Z,45.05
2023-02-14T17:47:22.855Z,42.70
2023-02-14T17:50:26.853Z,26.63
2023-02-14T17:53:29.667Z,32.70
2023-02-14T17:56:34.798Z,27.45
2023-02-14T17:59:38.309Z,31.50
2023-02-14T18:02:42.059Z,31.25
2023-02-14T18:05:46.880Z,35.37
2023-02-14T18:08:53.195Z,36.90
2023-02-14T18:11:56.741Z,46.60
2023-02-14T18:15:01.908Z,41.58
2023-02-14T18:18:08.867Z,50.47
2023-02-14T18:21:17.219Z,50.17
2023-02-14T18:24:20.943Z,41.57
2023-02-14T18:27:25.410Z,46.85
2023-02-14T18:30:28.667Z,50.85
2023-02-14T18:33:34.932Z,52.72
2023-02-14T18:36:41.215Z,56.50
2023-02-14T18:39:44.966Z,55.80
2023-02-14T18:42:49.299Z,57.95
2023-02-14T18:45:53.678Z,53.20
2023-02-14T18:48:59.119Z,57.20
2023-02-14T18:52:05.600Z,55.10
2023-02-14T18:55:11.894Z,51.17
2023-02-14T18:58:16.784Z,51.67
2023-02-14T19:01:26.957Z,60.45
2023-02-14T19:04:34.466Z,53.33
2023-02-14T19:07:38.450Z,50.67
2023-02-14T19:10:43.522Z,48.20
2023-02-14T19:13:54.214Z,54.47
2023-02-14T19:16:58.632Z,57.88
2023-02-14T19:20:09.495Z,58.25
2023-02-14T19:23:13.688Z,48.20
2023-02-14T19:26:22.846Z,47.60
2023-02-14T19:29:27.602Z,50.20
2023-02-14T19:32:32.767Z,46.47
2023-02-14T19:35:36.639Z,51.45
2023-02-14T19:38:45.698Z,46.70
2023-02-14T19:41:50.011Z,57.67
2023-02-14T19:44:57.791Z,51.03
2023-02-14T19:48:04.852Z,65.32
2023-02-14T19:51:09.019Z,47.85
2023-02-14T19:54:16.205Z,98.37
2023-02-14T19:57:22.139Z,83.13
2023-02-14T20:00:26.688Z,56.90
2023-02-14T20:03:31.241Z,76.32
2023-02-14T20:06:35.151Z,62.90
2023-02-14T20:09:39.305Z,65.57
2023-02-14T20:12:43.885Z,68.53
2023-02-14T20:15:47.811Z,67.65
2023-02-14T20:18:53.323Z,80.43
2023-02-14T20:21:57.758Z,98.05
2023-02-14T20:25:02.543Z,79.87
2023-02-14T20:28:08.335Z,67.45
2023-02-14T20:31:15.523Z,63.38
2023-02-14T20:34:20.922Z,73.57
2023-02-14T20:37:26.088Z,70.18
2023-02-14T20:40:32.152Z,73.90
2023-02-14T20:43:37.361Z,53.58
2023-02-14T20:46:42.347Z,74.35
2023-02-14T20:49:46.662Z,69.97
2023-02-14T20:52:50.891Z,63.97
2023-02-14T20:55:55.374Z,64.97
2023-02-14T20:59:02.645Z,60.93
2023-02-14T21:02:09.471Z,73.05
2023-02-14T21:05:19.104Z,62.72
2023-02-14T21:08:23.097Z,53.80
2023-02-14T21:11:29.273Z,57.03
2023-02-14T21:14:34.056Z,59.28
2023-02-14T21:17:40.280Z,57.35
2023-02-14T21:20:45.306Z,57.83
2023-02-14T21:23:50.869Z,54.20
2023-02-14T21:26:55.008Z,56.73
2023-02-14T21:29:59.896Z,58.00
2023-02-14T21:33:04.845Z,61.22
2023-02-14T21:36:21.886Z,49.80
2023-02-14T21:39:28.862Z,58.60
2023-02-14T21:42:33.117Z,55.07
2023-02-14T21:45:55.660Z,47.60
2023-02-14T21:49:19.797Z,56.28
2023-02-14T21:52:23.354Z,48.30
2023-02-14T21:55:26.945Z,43.33
2023-02-14T21:58:31.746Z,43.43
2023-02-14T22:01:37.980Z,42.20
2023-02-14T22:04:43.343Z,54.25
2023-02-14T22:07:46.346Z,47.58
2023-02-14T22:10:48.861Z,49.47
2023-02-14T22:13:51.489Z,48.23
2023-02-14T22:16:53.892Z,49.47
2023-02-14T22:19:57.713Z,52.50
2023-02-14T22:23:00.102Z,51.55
2023-02-14T22:26:24.461Z,43.25
2023-02-14T22:29:27.544Z,46.33
2023-02-14T22:32:29.927Z,48.57
2023-02-14T22:35:32.227Z,37.15
2023-02-14T22:38:35.836Z,44.75
2023-02-14T22:41:38.581Z,43.78
2023-02-14T22:44:40.905Z,40.53
2023-02-14T22:47:43.177Z,37.90
2023-02-14T22:50:45.646Z,42.72
2023-02-14T22:53:49.507Z,44.90
2023-02-14T22:56:51.870Z,37.25
2023-02-14T22:59:54.559Z,36.70
2023-02-14T23:02:56.881Z,43.60
2023-02-14T23:06:00.566Z,40.08
2023-02-14T23:09:05.833Z,36.10
2023-02-14T23:12:28.134Z,42.65
2023-02-14T23:15:49.139Z,41.70
2023-02-14T23:19:10.491Z,41.53
2023-02-14T23:22:15.950Z,42.55
2023-02-14T23:25:18.352Z,38.55
2023-02-14T23:28:20.578Z,39.13
2023-02-14T23:31:23.037Z,48.47
2023-02-14T23:34:29.302Z,42.70
2023-02-14T23:37:31.733Z,44.28
2023-02-14T23:40:54.016Z,43.22
2023-02-14T23:43:56.639Z,42.97
2023-02-14T23:47:01.183Z,41.17
2023-02-14T23:50:03.577Z,47.77
2023-02-14T23:53:07.070Z,42.40
2023-02-14T23:56:09.305Z,39.97
2023-02-14T23:59:12.976Z,44.63
